Time;durP1;ratioP1;P1;durP2;ratioP2;P2;SDS_P1;SDS_P2;PMS_P1;PMS_P2;Temp;Humidity;BMP_temperature;BMP_pressure;BME280_temperature;BME280_humidity;BME280_pressure;Samples;Min_cycle;Max_cycle;Signal;HPM_P1;HPM_P2
2022/04/02 00:00:58;;;;;;;6.05;2.67;;;1.90;99.60;;;;;;4987728;28;20085;-75
2022/04/02 00:03:24;;;;;;;6.43;2.75;;;1.80;99.70;;;;;;4976572;28;20076;-75
2022/04/02 00:05:50;;;;;;;7.20;2.78;;;2.00;99.90;;;;;;4961334;28;20050;-75
2022/04/02 00:08:16;;;;;;;7.68;2.70;;;1.80;99.90;;;;;;4993521;28;20034;-75
2022/04/02 00:10:42;;;;;;;6.22;2.80;;;1.70;99.90;;;;;;4977210;28;20101;-75
2022/04/02 00:13:08;;;;;;;6.20;2.90;;;1.80;99.90;;;;;;4993112;28;20077;-75
2022/04/02 00:15:33;;;;;;;6.47;2.90;;;1.70;99.90;;;;;;4993476;28;20544;-75
2022/04/02 00:17:59;;;;;;;5.80;2.70;;;1.80;99.90;;;;;;4992204;28;20043;-75
2022/04/02 00:20:25;;;;;;;7.32;3.00;;;1.80;99.90;;;;;;4977209;28;20042;-75
2022/04/02 00:25:35;;;;;;;6.13;2.95;;;1.70;99.90;;;;;;4965935;28;20053;-75
2022/04/02 00:28:01;;;;;;;6.20;2.80;;;1.70;99.90;;;;;;4992361;28;20042;-75
2022/04/02 00:30:27;;;;;;;6.80;2.83;;;1.70;99.90;;;;;;4993348;28;20074;-75
2022/04/02 00:32:52;;;;;;;5.38;2.35;;;1.70;99.90;;;;;;4975864;28;20049;-75
2022/04/02 00:35:18;;;;;;;7.45;2.72;;;1.70;99.90;;;;;;4976797;28;20475;-75
2022/04/02 00:37:44;;;;;;;6.18;2.92;;;1.60;99.90;;;;;;4977186;28;20035;-75
2022/04/02 00:40:10;;;;;;;6.63;2.75;;;1.80;99.90;;;;;;4973453;28;20062;-75
2022/04/02 00:42:36;;;;;;;5.53;2.80;;;1.60;99.90;;;;;;4973465;28;20035;-75
2022/04/02 00:45:02;;;;;;;6.07;2.80;;;1.60;99.90;;;;;;4907944;28;20092;-75
2022/04/02 00:47:27;;;;;;;6.18;2.80;;;1.50;99.90;;;;;;4956381;28;20105;-75
2022/04/02 00:49:54;;;;;;;8.52;2.95;;;1.60;99.90;;;;;;4973326;28;20043;-75
2022/04/02 00:52:24;;;;;;;9.07;3.15;;;1.60;99.90;;;;;;4972964;28;20077;-75
2022/04/02 00:54:51;;;;;;;6.60;2.75;;;1.50;99.90;;;;;;4973167;28;20096;-75
2022/04/02 00:57:17;;;;;;;6.85;2.80;;;1.50;99.90;;;;;;4941037;28;20035;-75
2022/04/02 00:59:43;;;;;;;7.38;2.65;;;1.50;99.90;;;;;;4957246;28;20046;-75
2022/04/02 01:02:09;;;;;;;7.25;2.90;;;1.50;99.90;;;;;;4956728;28;20038;-75
2022/04/02 01:04:35;;;;;;;6.43;2.88;;;1.50;99.90;;;;;;4972737;28;20090;-75
2022/04/02 01:07:02;;;;;;;6.65;2.80;;;1.50;99.90;;;;;;4972973;28;20047;-75
2022/04/02 01:09:27;;;;;;;5.80;2.88;;;1.60;99.90;;;;;;4973078;28;20045;-75
2022/04/02 01:11:54;;;;;;;6.18;2.80;;;1.60;99.90;;;;;;4973029;28;20125;-75
2022/04/02 01:14:20;;;;;;;8.75;2.95;;;1.60;99.90;;;;;;4973190;28;20485;-75
2022/04/02 01:16:46;;;;;;;6.72;2.80;;;1.50;99.90;;;;;;4956959;28;20074;-75
2022/04/02 01:19:11;;;;;;;6.53;2.95;;;1.60;99.90;;;;;;4955976;28;20402;-75
2022/04/02 01:21:37;;;;;;;5.97;2.70;;;1.60;99.90;;;;;;4973112;28;20047;-75
2022/04/02 01:24:04;;;;;;;6.88;3.00;;;1.50;99.90;;;;;;4940943;28;20495;-75
2022/04/02 01:26:30;;;;;;;5.97;2.80;;;1.60;99.90;;;;;;4972823;28;20046;-75
2022/04/02 01:28:57;;;;;;;7.45;3.00;;;1.50;99.90;;;;;;4972656;28;20066;-75
2022/04/02 01:31:23;;;;;;;6.40;2.80;;;1.50;99.90;;;;;;4972979;28;20043;-75
2022/04/02 01:33:49;;;;;;;7.32;2.97;;;1.50;99.90;;;;;;4955862;28;20047;-75
2022/04/02 01:36:16;;;;;;;6.10;2.83;;;1.50;99.90;;;;;;4972850;28;20097;-75
2022/04/02 01:38:42;;;;;;;5.57;2.80;;;1.60;99.90;;;;;;4958371;28;20151;-75
2022/04/02 01:41:08;;;;;;;7.03;2.80;;;1.50;99.90;;;;;;4960766;28;20043;-75
2022/04/02 01:43:34;;;;;;;6.53;2.83;;;1.40;99.90;;;;;;4976686;28;20043;-75
2022/04/02 01:46:01;;;;;;;6.68;2.90;;;1.40;99.90;;;;;;4976659;28;20051;-75
2022/04/02 01:48:27;;;;;;;6.85;2.60;;;1.40;99.90;;;;;;4959484;28;20097;-75
2022/04/02 01:50:53;;;;;;;6.22;2.75;;;1.40;99.90;;;;;;4976515;28;20517;-75
2022/04/02 01:53:20;;;;;;;7.60;2.80;;;1.30;99.90;;;;;;4960129;28;20065;-75
2022/04/02 01:55:46;;;;;;;6.65;2.58;;;1.30;99.90;;;;;;4960359;28;20038;-75
2022/04/02 01:58:13;;;;;;;7.32;2.88;;;1.30;99.90;;;;;;4976185;28;20072;-75
2022/04/02 02:00:39;;;;;;;8.27;2.72;;;1.20;99.90;;;;;;4976441;28;20053;-75
2022/04/02 02:03:06;;;;;;;5.78;2.60;;;1.10;99.90;;;;;;4975195;28;20055;-75
2022/04/02 02:05:33;;;;;;;7.55;3.10;;;1.10;99.90;;;;;;4976342;28;20043;-75
2022/04/02 02:07:59;;;;;;;6.00;2.90;;;1.10;99.90;;;;;;4970507;28;20061;-75
2022/04/02 02:10:24;;;;;;;6.85;2.72;;;1.10;99.90;;;;;;4995719;28;20412;-75
2022/04/02 02:12:50;;;;;;;7.05;3.00;;;1.10;99.90;;;;;;4995549;28;20042;-75
2022/04/02 02:15:19;;;;;;;6.78;2.70;;;1.20;99.90;;;;;;4979604;28;20070;-75
2022/04/02 02:17:46;;;;;;;6.38;2.88;;;1.10;99.90;;;;;;4963237;28;20125;-75
2022/04/02 02:20:12;;;;;;;5.82;3.00;;;1.20;99.90;;;;;;4995582;28;20069;-75
2022/04/02 02:22:39;;;;;;;8.00;2.75;;;1.10;99.90;;;;;;4995165;28;20038;-75
2022/04/02 02:25:07;;;;;;;6.55;2.90;;;1.00;99.90;;;;;;4995472;28;20121;-75
2022/04/02 02:27:34;;;;;;;6.50;3.03;;;1.00;99.90;;;;;;4995402;28;20046;-75
2022/04/02 02:30:00;;;;;;;6.47;2.92;;;1.00;99.90;;;;;;4995224;28;20042;-75
2022/04/02 02:32:26;;;;;;;7.07;3.22;;;1.10;99.90;;;;;;4994213;28;20111;-75
2022/04/02 02:37:37;;;;;;;6.97;3.03;;;1.00;99.90;;;;;;4994978;28;20057;-75
2022/04/02 02:40:04;;;;;;;7.13;2.97;;;1.00;99.90;;;;;;4995039;28;20054;-75
2022/04/02 02:42:31;;;;;;;6.63;3.00;;;0.90;99.90;;;;;;5011243;28;20101;-75
2022/04/02 02:44:57;;;;;;;7.25;3.08;;;0.90;99.90;;;;;;4962898;28;20042;-75
2022/04/02 02:47:23;;;;;;;6.43;3.13;;;0.90;99.90;;;;;;4977679;28;20034;-75
2022/04/02 02:49:49;;;;;;;7.20;2.80;;;0.90;99.90;;;;;;4962115;28;20493;-75
2022/04/02 02:52:14;;;;;;;7.70;3.40;;;0.90;99.90;;;;;;4992033;28;20050;-75
2022/04/02 02:54:40;;;;;;;7.78;3.33;;;0.90;99.90;;;;;;4943555;28;20043;-75
2022/04/02 02:57:06;;;;;;;6.18;2.90;;;0.90;99.90;;;;;;4975156;28;20186;-75
2022/04/02 02:59:34;;;;;;;6.65;3.00;;;1.00;99.90;;;;;;4975286;28;20188;-75
2022/04/02 03:02:00;;;;;;;8.70;3.15;;;0.90;99.90;;;;;;4975012;28;20529;-75
2022/04/02 03:04:25;;;;;;;8.50;3.10;;;0.90;99.90;;;;;;4974783;28;20043;-75
2022/04/02 03:06:51;;;;;;;6.18;3.10;;;0.90;99.90;;;;;;4959439;28;20065;-75
2022/04/02 03:09:17;;;;;;;7.13;3.10;;;0.90;99.90;;;;;;4958929;28;20109;-75
2022/04/02 03:11:43;;;;;;;7.97;3.05;;;0.90;99.90;;;;;;4975093;28;20458;-75
2022/04/02 03:14:09;;;;;;;10.27;3.10;;;0.90;99.90;;;;;;4974780;28;20050;-75
2022/04/02 03:16:35;;;;;;;8.25;2.92;;;0.90;99.90;;;;;;4958934;28;20101;-75
2022/04/02 03:19:02;;;;;;;5.80;2.80;;;0.90;99.90;;;;;;4957870;28;20047;-75
2022/04/02 03:21:31;;;;;;;8.20;3.40;;;0.90;99.90;;;;;;4975037;28;20138;-75
2022/04/02 03:23:56;;;;;;;9.45;3.20;;;0.90;99.90;;;;;;4959322;28;20484;-75
2022/04/02 03:26:22;;;;;;;8.50;3.15;;;0.80;99.90;;;;;;4974783;28;20046;-75
2022/04/02 03:28:49;;;;;;;7.43;3.17;;;0.80;99.90;;;;;;4974766;28;20050;-75
2022/04/02 03:31:14;;;;;;;6.53;3.25;;;0.80;99.90;;;;;;4974721;28;20077;-75
2022/04/02 03:33:40;;;;;;;8.52;3.33;;;0.80;99.90;;;;;;4957829;28;20149;-75
2022/04/02 03:36:10;;;;;;;8.13;3.17;;;0.80;99.90;;;;;;4974812;28;20047;-75
2022/04/02 03:38:37;;;;;;;7.35;3.28;;;0.80;99.90;;;;;;4959004;28;20045;-75
2022/04/02 03:41:04;;;;;;;6.93;3.38;;;0.80;99.90;;;;;;4958857;28;20046;-75
2022/04/02 03:43:30;;;;;;;8.70;3.40;;;0.70;99.90;;;;;;4958458;28;20096;-75
2022/04/02 03:47:08;;;;;;;9.40;3.45;;;0.70;99.90;;;;;;4958470;28;20053;-75
2022/04/02 03:48:42;;;;;;;6.65;3.47;;;0.70;99.90;;;;;;4973260;28;20148;-75
2022/04/02 03:51:07;;;;;;;8.45;3.40;;;0.60;99.90;;;;;;4974423;28;20042;-75
2022/04/02 03:53:33;;;;;;;9.00;3.55;;;0.60;99.90;;;;;;4942029;28;20039;-75
2022/04/02 03:55:59;;;;;;;10.27;3.65;;;0.60;99.90;;;;;;4958223;28;20482;-75
2022/04/02 03:58:25;;;;;;;7.57;3.35;;;0.60;99.90;;;;;;4974026;28;20042;-75
2022/04/02 04:00:52;;;;;;;7.28;3.38;;;0.60;99.90;;;;;;4974030;28;20062;-75
2022/04/02 04:03:18;;;;;;;8.60;3.75;;;0.50;99.90;;;;;;4956426;28;20403;-75
2022/04/02 04:05:43;;;;;;;8.68;3.78;;;0.50;99.90;;;;;;4974175;28;20050;-75
2022/04/02 04:08:09;;;;;;;8.70;3.85;;;0.50;99.90;;;;;;4974195;28;20129;-75
2022/04/02 04:10:35;;;;;;;9.18;3.85;;;0.50;99.90;;;;;;4942099;28;20104;-75
2022/04/02 04:13:01;;;;;;;8.43;3.63;;;0.40;99.90;;;;;;4957645;28;20051;-75
2022/04/02 04:15:27;;;;;;;8.25;3.80;;;0.40;99.90;;;;;;4960011;28;20089;-75
2022/04/02 04:17:53;;;;;;;9.55;4.03;;;0.40;99.90;;;;;;4992155;28;20499;-75
2022/04/02 04:20:20;;;;;;;7.90;3.42;;;0.40;99.90;;;;;;4993342;28;20512;-75
2022/04/02 04:22:45;;;;;;;7.90;4.07;;;0.40;99.90;;;;;;4993313;28;20401;-75
2022/04/02 04:25:11;;;;;;;7.78;3.67;;;0.70;99.90;;;;;;4993449;28;20038;-75
2022/04/02 04:27:38;;;;;;;8.00;4.00;;;0.40;99.90;;;;;;4976991;28;20088;-75
2022/04/02 04:30:05;;;;;;;7.72;4.05;;;0.40;99.90;;;;;;4993014;28;20053;-75
2022/04/02 04:32:30;;;;;;;8.50;4.07;;;0.30;99.90;;;;;;4991985;28;20054;-75
2022/04/02 04:34:56;;;;;;;9.77;3.78;;;0.30;99.90;;;;;;4992914;28;20046;-75
2022/04/02 04:37:22;;;;;;;9.30;3.85;;;0.40;99.90;;;;;;4993041;28;20050;-75
2022/04/02 04:39:48;;;;;;;12.63;4.20;;;0.40;99.90;;;;;;4976599;28;20050;-75
2022/04/02 04:42:13;;;;;;;7.38;3.95;;;0.30;99.90;;;;;;4992949;28;20054;-75
2022/04/02 04:44:40;;;;;;;7.78;4.18;;;0.40;99.90;;;;;;4992919;28;20087;-75
2022/04/02 04:47:06;;;;;;;9.85;4.40;;;0.40;99.90;;;;;;4992501;28;20089;-75
2022/04/02 04:49:32;;;;;;;10.27;4.22;;;0.40;99.90;;;;;;4992296;28;20075;-75
2022/04/02 04:51:58;;;;;;;9.40;3.92;;;0.40;99.90;;;;;;4976791;28;20139;-75
2022/04/02 04:54:24;;;;;;;7.90;3.95;;;0.40;99.90;;;;;;4976212;28;20043;-74
2022/04/02 04:56:50;;;;;;;7.82;3.90;;;0.40;99.90;;;;;;4957140;28;20057;-74
2022/04/02 04:59:15;;;;;;;12.43;4.15;;;0.40;99.90;;;;;;4957021;28;20038;-74
2022/04/02 05:01:42;;;;;;;7.68;3.80;;;0.40;99.90;;;;;;4973275;28;20495;-74
2022/04/02 05:04:08;;;;;;;9.00;4.13;;;0.40;99.90;;;;;;4972416;28;20070;-74
2022/04/02 05:06:37;;;;;;;8.52;4.03;;;0.40;99.90;;;;;;4973230;28;20128;-74
2022/04/02 05:09:04;;;;;;;7.18;3.80;;;0.40;99.90;;;;;;4972915;28;20198;-74
2022/04/02 05:11:31;;;;;;;8.60;4.07;;;0.50;99.90;;;;;;4973143;28;20043;-74
2022/04/02 05:13:56;;;;;;;8.75;3.90;;;0.40;99.90;;;;;;4972524;28;20046;-74
2022/04/02 05:16:23;;;;;;;10.02;3.83;;;0.50;99.90;;;;;;4972962;28;20043;-74
2022/04/02 05:18:49;;;;;;;6.53;3.70;;;0.40;99.90;;;;;;4972165;28;20483;-74
2022/04/02 05:21:15;;;;;;;10.45;4.20;;;0.50;99.90;;;;;;4973340;28;20494;-74
2022/04/02 05:23:42;;;;;;;11.75;4.07;;;0.50;99.90;;;;;;4973028;28;20050;-74
2022/04/02 05:26:08;;;;;;;8.32;4.10;;;0.50;99.90;;;;;;4973049;28;20049;-74
2022/04/02 05:28:34;;;;;;;11.15;4.82;;;0.50;99.90;;;;;;4972902;28;20561;-74
2022/04/02 05:31:00;;;;;;;8.50;4.38;;;0.50;99.90;;;;;;4972956;28;20050;-74
2022/04/02 05:33:25;;;;;;;9.70;4.10;;;0.50;99.90;;;;;;4972061;28;20070;-74
2022/04/02 05:35:51;;;;;;;10.35;4.07;;;0.50;99.90;;;;;;4957040;28;20054;-74
2022/04/02 05:38:17;;;;;;;11.43;4.28;;;0.40;99.90;;;;;;4972809;28;20042;-74
2022/04/02 05:40:43;;;;;;;10.70;4.20;;;0.50;99.90;;;;;;4956628;28;20047;-74
2022/04/02 05:43:09;;;;;;;9.02;4.43;;;0.50;99.90;;;;;;4956661;28;20170;-74
2022/04/02 05:45:34;;;;;;;10.52;4.95;;;0.50;99.90;;;;;;4972793;28;20046;-75
2022/04/02 05:48:00;;;;;;;10.07;4.60;;;0.50;99.90;;;;;;4982051;28;20509;-75
2022/04/02 05:50:26;;;;;;;12.00;6.47;;;0.60;99.90;;;;;;4975757;28;20042;-75
2022/04/02 05:52:53;;;;;;;14.52;9.77;;;0.60;99.90;;;;;;4991606;28;20137;-75
2022/04/02 05:55:19;;;;;;;14.15;9.00;;;0.60;99.90;;;;;;4991119;28;20042;-75
2022/04/02 05:57:46;;;;;;;13.32;8.07;;;0.70;99.90;;;;;;4975628;28;20398;-77
2022/04/02 06:00:15;;;;;;;11.23;6.18;;;0.70;99.90;;;;;;4967581;28;20042;-77
2022/04/02 06:02:41;;;;;;;11.23;7.40;;;0.80;99.90;;;;;;4959034;28;20109;-77
2022/04/02 06:05:08;;;;;;;12.23;7.13;;;0.80;99.90;;;;;;4976585;28;20030;-76
2022/04/02 06:07:34;;;;;;;13.07;8.40;;;0.90;99.90;;;;;;4972802;28;20046;-76
2022/04/02 06:10:02;;;;;;;12.98;7.22;;;0.90;99.90;;;;;;4972614;28;20078;-76
2022/04/02 06:12:32;;;;;;;15.85;10.68;;;1.00;99.90;;;;;;4975491;28;20078;-77
2022/04/02 06:14:58;;;;;;;11.10;7.70;;;1.00;99.90;;;;;;4992063;28;20038;-77
2022/04/02 06:17:24;;;;;;;16.38;11.43;;;1.00;99.90;;;;;;4991137;28;20401;-76
2022/04/02 06:19:50;;;;;;;17.20;10.95;;;1.10;99.90;;;;;;4980014;28;20043;-76
2022/04/02 06:22:16;;;;;;;20.45;12.82;;;1.30;99.90;;;;;;4982394;28;20046;-77
2022/04/02 06:24:42;;;;;;;34.92;24.73;;;1.10;99.90;;;;;;4956796;28;20405;-77
2022/04/02 06:27:07;;;;;;;20.38;13.25;;;1.20;99.90;;;;;;4975790;28;20042;-77
2022/04/02 06:29:33;;;;;;;24.23;15.43;;;1.20;99.90;;;;;;4975650;28;20049;-77
2022/04/02 06:31:59;;;;;;;24.55;16.33;;;1.30;99.90;;;;;;4994364;28;20054;-76
2022/04/02 06:34:24;;;;;;;39.17;25.58;;;1.30;99.90;;;;;;4974866;28;20039;-76
2022/04/02 06:36:50;;;;;;;27.38;15.75;;;1.40;99.90;;;;;;4950373;28;20042;-76
2022/04/02 06:39:16;;;;;;;25.75;16.83;;;1.50;99.90;;;;;;4952612;28;20038;-76
2022/04/02 06:41:42;;;;;;;28.33;17.40;;;1.50;99.90;;;;;;4958394;28;20043;-76
2022/04/02 06:44:08;;;;;;;30.02;16.63;;;1.60;99.90;;;;;;4958408;28;20035;-76
2022/04/02 06:46:37;;;;;;;21.23;13.00;;;1.70;99.90;;;;;;4974306;28;20047;-76
2022/04/02 06:49:04;;;;;;;75.28;41.00;;;1.70;99.90;;;;;;4975261;28;20039;-76
2022/04/02 06:51:29;;;;;;;75.75;42.70;;;1.80;99.90;;;;;;4975512;28;20050;-79
2022/04/02 06:53:55;;;;;;;74.22;42.00;;;1.90;99.90;;;;;;4978404;28;20426;-78
2022/04/02 06:56:21;;;;;;;34.88;22.58;;;2.00;99.90;;;;;;4994842;28;20042;-77
2022/04/02 06:58:47;;;;;;;11.30;5.05;;;2.20;99.90;;;;;;4994916;28;20065;-77
2022/04/02 07:01:13;;;;;;;16.45;11.40;;;2.40;99.90;;;;;;4995195;28;20035;-77
2022/04/02 07:03:38;;;;;;;16.25;10.40;;;2.40;99.90;;;;;;4993963;28;20046;-77
2022/04/02 07:06:04;;;;;;;12.48;6.88;;;2.50;99.90;;;;;;4994731;28;20048;-76
2022/04/02 07:08:30;;;;;;;10.23;5.82;;;2.80;99.90;;;;;;4957043;28;20053;-75
2022/04/02 07:10:56;;;;;;;12.50;7.60;;;2.80;99.90;;;;;;4974291;28;20043;-75
2022/04/02 07:13:24;;;;;;;9.93;5.28;;;3.00;99.90;;;;;;4957998;28;20046;-75
2022/04/02 07:15:49;;;;;;;11.00;6.10;;;3.10;99.90;;;;;;4973793;28;20519;-75
2022/04/02 07:18:15;;;;;;;20.45;14.75;;;3.20;99.90;;;;;;4967367;28;20042;-75
2022/04/02 07:20:41;;;;;;;15.85;8.70;;;3.50;99.90;;;;;;4977536;28;20066;-77
2022/04/02 07:23:09;;;;;;;25.70;18.95;;;3.40;99.90;;;;;;4977108;28;20042;-77
2022/04/02 07:25:39;;;;;;;14.13;9.32;;;3.50;99.90;;;;;;4992782;28;20042;-78
2022/04/02 07:28:07;;;;;;;12.32;5.53;;;3.60;99.90;;;;;;4994203;28;20039;-77
2022/04/02 07:30:35;;;;;;;13.38;9.40;;;3.70;99.90;;;;;;4994500;28;20050;-77
2022/04/02 07:33:01;;;;;;;12.57;6.82;;;3.90;99.90;;;;;;4992881;28;20046;-77
2022/04/02 07:35:47;;;;;;;12.93;7.82;;;3.80;99.90;;;;;;4993338;28;20051;-76
2022/04/02 07:38:22;;;;;;;11.85;8.23;;;3.80;99.90;;;;;;4977106;28;20104;-76
2022/04/02 07:41:01;;;;;;;8.68;4.80;;;3.90;99.90;;;;;;4992229;28;20054;-76
2022/04/02 07:43:40;;;;;;;10.55;5.70;;;4.00;99.90;;;;;;4961566;28;20398;-76
2022/04/02 07:46:16;;;;;;;12.38;6.68;;;4.10;99.90;;;;;;4972996;28;20042;-76
2022/04/02 07:48:45;;;;;;;25.83;18.83;;;4.30;99.90;;;;;;4973464;28;20047;-76
2022/04/02 07:51:13;;;;;;;10.52;5.18;;;4.40;99.90;;;;;;4958342;28;20121;-76
2022/04/02 07:53:50;;;;;;;9.63;5.82;;;4.70;99.90;;;;;;4942300;28;20072;-76
2022/04/02 07:56:26;;;;;;;8.32;4.55;;;4.50;99.90;;;;;;4974497;28;20510;-76
2022/04/02 07:58:59;;;;;;;11.40;5.18;;;4.70;99.90;;;;;;4974410;28;20398;-76
2022/04/02 08:01:24;;;;;;;13.60;8.60;;;4.70;99.90;;;;;;4974504;28;20541;-76
2022/04/02 08:03:52;;;;;;;10.02;6.43;;;4.70;99.90;;;;;;4973379;28;20090;-76
2022/04/02 08:06:19;;;;;;;18.13;12.55;;;4.60;99.90;;;;;;4974423;28;20085;-76
2022/04/02 08:08:45;;;;;;;8.85;4.85;;;4.80;99.90;;;;;;4974156;28;20521;-75
2022/04/02 08:11:12;;;;;;;7.68;3.85;;;4.70;99.90;;;;;;4973881;28;20122;-75
2022/04/02 08:13:41;;;;;;;8.68;4.07;;;5.00;99.90;;;;;;4973729;28;20129;-75
2022/04/02 08:16:10;;;;;;;8.98;4.50;;;5.20;98.20;;;;;;4973898;28;20173;-76
2022/04/02 08:18:41;;;;;;;11.68;6.05;;;5.10;97.70;;;;;;4957341;28;20046;-76
2022/04/02 08:21:10;;;;;;;14.45;9.35;;;5.30;96.00;;;;;;4984417;28;20038;-76
2022/04/02 08:23:37;;;;;;;7.70;4.90;;;5.40;96.20;;;;;;4977103;28;20580;-76
2022/04/02 08:26:21;;;;;;;6.57;3.63;;;5.50;93.10;;;;;;4993310;28;20050;-76
2022/04/02 08:29:05;;;;;;;9.88;4.00;;;5.40;91.20;;;;;;4992883;28;20049;-76
2022/04/02 08:31:45;;;;;;;7.55;3.10;;;5.30;89.90;;;;;;4972184;28;20046;-76
2022/04/02 08:34:36;;;;;;;8.13;3.42;;;5.30;91.30;;;;;;4972739;28;20057;-76
2022/04/02 08:37:24;;;;;;;6.30;2.92;;;5.20;90.50;;;;;;4973376;28;20047;-76
2022/04/02 08:40:02;;;;;;;6.10;2.22;;;5.70;88.30;;;;;;4957409;28;20418;-76
2022/04/02 08:42:46;;;;;;;5.70;2.88;;;6.10;82.10;;;;;;4973254;28;20049;-76
2022/04/02 08:45:13;;;;;;;7.45;3.00;;;6.00;83.90;;;;;;4973599;28;20085;-76
2022/04/02 08:48:24;;;;;;;6.65;2.15;;;6.10;82.20;;;;;;4955992;28;20078;-76
2022/04/02 08:51:09;;;;;;;6.47;2.53;;;6.20;72.70;;;;;;4972927;28;20082;-76
2022/04/02 08:53:57;;;;;;;5.80;2.60;;;5.80;72.50;;;;;;4972678;28;20470;-76
2022/04/02 08:56:25;;;;;;;6.07;2.22;;;6.10;70.80;;;;;;4972547;28;20467;-77
2022/04/02 08:59:05;;;;;;;7.20;2.50;;;6.20;70.60;;;;;;4972129;28;20038;-77
2022/04/02 09:01:51;;;;;;;7.50;2.65;;;6.30;67.00;;;;;;4972356;28;20494;-80
2022/04/02 09:04:31;;;;;;;6.10;2.65;;;6.40;67.70;;;;;;4972240;28;20095;-76
2022/04/02 09:07:03;;;;;;;5.85;2.72;;;6.40;68.20;;;;;;4957293;28;20517;-76
2022/04/02 09:10:03;;;;;;;5.75;2.80;;;6.60;70.40;;;;;;4991461;28;20049;-76
2022/04/02 09:12:44;;;;;;;7.70;2.70;;;6.90;72.00;;;;;;4972165;28;20038;-76
2022/04/02 09:15:15;;;;;;;6.57;2.38;;;6.70;67.20;;;;;;4990286;28;20046;-76
2022/04/02 09:17:59;;;;;;;5.40;2.60;;;6.70;63.70;;;;;;4975397;28;20038;-76
2022/04/02 09:20:35;;;;;;;5.60;2.60;;;6.90;65.90;;;;;;5008796;28;20050;-76
2022/04/02 09:23:25;;;;;;;5.78;2.70;;;6.70;65.00;;;;;;5008609;28;20047;-76
2022/04/02 09:26:18;;;;;;;6.10;2.70;;;6.80;63.90;;;;;;4976255;28;20129;-76
2022/04/02 09:28:46;;;;;;;7.38;2.90;;;6.60;64.50;;;;;;5008458;28;20047;-76
2022/04/02 09:31:48;;;;;;;6.30;2.58;;;7.00;68.80;;;;;;5008970;28;20097;-76
2022/04/02 09:34:33;;;;;;;4.72;1.92;;;7.30;64.90;;;;;;4971718;28;20515;-76
2022/04/02 09:37:08;;;;;;;5.72;2.30;;;7.40;62.50;;;;;;4972012;28;20046;-76
2022/04/02 09:40:09;;;;;;;5.10;2.35;;;7.20;59.50;;;;;;4988232;28;20058;-76
2022/04/02 09:42:46;;;;;;;5.13;2.30;;;7.20;61.30;;;;;;4988164;28;20043;-76
2022/04/02 09:45:18;;;;;;;8.20;2.10;;;7.40;58.90;;;;;;4972233;28;20046;-76
2022/04/02 09:47:47;;;;;;;7.05;2.25;;;7.10;60.30;;;;;;4969429;28;20066;-77
2022/04/02 09:50:24;;;;;;;7.00;2.10;;;6.70;70.20;;;;;;4988165;28;20041;-77
2022/04/02 09:52:55;;;;;;;6.50;2.20;;;6.20;78.80;;;;;;4987667;28;20117;-77
2022/04/02 09:55:24;;;;;;;7.05;2.05;;;5.70;86.50;;;;;;4972258;28;20474;-76
2022/04/02 09:58:19;;;;;;;5.55;1.90;;;5.30;93.00;;;;;;4971748;28;20069;-76
2022/04/02 10:01:06;;;;;;;6.47;2.30;;;5.10;95.20;;;;;;4976869;28;20038;-77
2022/04/02 10:04:09;;;;;;;56.38;30.30;;;5.10;98.30;;;;;;4984646;28;20050;-77
2022/04/02 10:06:42;;;;;;;16.73;8.65;;;4.80;99.90;;;;;;4979601;28;20105;-79
2022/04/02 10:09:16;;;;;;;24.60;13.15;;;4.80;96.50;;;;;;4979640;28;20049;-78
2022/04/02 10:11:52;;;;;;;38.17;24.80;;;4.70;94.30;;;;;;4995826;28;20101;-78
2022/04/02 10:14:23;;;;;;;13.02;6.22;;;4.70;94.40;;;;;;4979320;28;20154;-78
2022/04/02 10:17:04;;;;;;;4.88;2.10;;;4.70;94.40;;;;;;4975783;28;20534;-77
2022/04/02 10:19:36;;;;;;;7.18;3.10;;;4.60;91.60;;;;;;4992447;28;20038;-77
2022/04/02 10:22:04;;;;;;;13.50;6.68;;;4.50;90.80;;;;;;4979339;28;20053;-77
2022/04/02 10:24:47;;;;;;;8.80;5.07;;;4.70;92.40;;;;;;5011848;28;20050;-77
2022/04/02 10:27:29;;;;;;;10.70;7.32;;;4.70;90.70;;;;;;4995267;28;20052;-76
2022/04/02 10:30:09;;;;;;;5.22;2.53;;;4.70;83.50;;;;;;4995715;28;20521;-76
2022/04/02 10:35:46;;;;;;;4.65;1.77;;;5.10;77.30;;;;;;4975592;28;20057;-76
2022/04/02 10:38:21;;;;;;;4.70;1.80;;;5.50;73.70;;;;;;4975829;28;20501;-76
2022/04/02 10:40:52;;;;;;;6.45;2.70;;;5.90;70.30;;;;;;4975796;28;20134;-76
2022/04/02 10:43:27;;;;;;;6.80;2.50;;;6.20;66.30;;;;;;4959357;28;20043;-76
2022/04/02 10:45:54;;;;;;;13.20;7.15;;;6.40;64.90;;;;;;4975813;28;20057;-76
2022/04/02 10:48:47;;;;;;;5.43;1.90;;;6.60;65.20;;;;;;4974743;28;20461;-77
2022/04/02 10:51:14;;;;;;;5.65;2.60;;;6.70;62.90;;;;;;4958906;28;20424;-76
2022/04/02 10:53:43;;;;;;;3.78;1.48;;;6.90;64.80;;;;;;4982092;28;20042;-76
2022/04/02 10:56:17;;;;;;;5.40;2.10;;;6.90;63.00;;;;;;4984953;28;20502;-76
2022/04/02 10:58:46;;;;;;;4.97;1.80;;;6.40;63.00;;;;;;4966654;28;20122;-76
2022/04/02 11:01:14;;;;;;;6.55;1.90;;;6.20;58.80;;;;;;4985222;28;20565;-76
2022/04/02 11:03:42;;;;;;;4.90;1.88;;;6.10;58.40;;;;;;4981169;28;20118;-76
2022/04/02 11:06:08;;;;;;;5.43;2.20;;;6.10;61.10;;;;;;4984680;28;20530;-76
2022/04/02 11:08:34;;;;;;;5.18;2.40;;;6.20;62.20;;;;;;4977434;28;20034;-76
2022/04/02 11:11:27;;;;;;;6.22;2.05;;;6.40;62.80;;;;;;4987020;28;20105;-76
2022/04/02 11:14:01;;;;;;;4.43;1.88;;;6.50;60.00;;;;;;4963378;28;20528;-76
2022/04/02 11:16:40;;;;;;;4.22;1.50;;;6.50;54.50;;;;;;4980986;28;20045;-76
2022/04/02 11:22:06;;;;;;;4.47;1.60;;;6.30;56.00;;;;;;4979188;28;20110;-76
2022/04/02 11:24:52;;;;;;;4.43;1.80;;;5.90;60.00;;;;;;4980967;28;20461;-76
2022/04/02 11:27:23;;;;;;;5.55;2.10;;;5.80;71.50;;;;;;4982899;28;20042;-76
2022/04/02 11:29:50;;;;;;;5.55;1.85;;;5.70;79.80;;;;;;4978096;28;20038;-76
2022/04/02 11:32:24;;;;;;;5.35;1.90;;;5.30;80.20;;;;;;4982650;28;20480;-76
2022/04/02 11:34:51;;;;;;;5.90;1.83;;;5.20;75.60;;;;;;4979510;28;20133;-76
2022/04/02 11:37:21;;;;;;;6.85;1.65;;;5.10;71.00;;;;;;4981389;28;20486;-77
2022/04/02 11:39:53;;;;;;;6.32;2.03;;;5.10;78.00;;;;;;4964995;28;20046;-76
2022/04/02 11:42:25;;;;;;;4.53;2.00;;;5.10;83.40;;;;;;4973675;28;20047;-76
2022/04/02 11:44:52;;;;;;;;;;;5.30;83.80;;;;;;4976183;28;20093;-76
2022/04/02 11:47:29;;;;;;;5.55;2.03;;;5.50;84.20;;;;;;4990699;28;19921;-76
2022/04/02 11:50:06;;;;;;;5.95;2.50;;;5.60;85.30;;;;;;4985352;28;20078;-75
2022/04/02 11:52:55;;;;;;;5.88;2.20;;;5.70;83.60;;;;;;4967556;28;20125;-76
2022/04/02 11:55:22;;;;;;;4.22;1.80;;;5.70;80.10;;;;;;4974294;28;20123;-76
2022/04/02 11:58:00;;;;;;;4.80;1.95;;;5.60;80.30;;;;;;4962104;28;20085;-76
2022/04/02 12:00:27;;;;;;;6.45;2.00;;;5.20;87.10;;;;;;4969898;28;20044;-76
2022/04/02 12:02:53;;;;;;;5.50;1.90;;;4.90;91.60;;;;;;4972747;28;20035;-76
2022/04/02 12:05:20;;;;;;;5.55;2.00;;;4.50;95.20;;;;;;4989096;28;20034;-76
2022/04/02 12:07:52;;;;;;;5.28;2.45;;;4.30;95.90;;;;;;4993308;28;20042;-76
2022/04/02 12:10:18;;;;;;;6.53;1.90;;;4.30;95.50;;;;;;4983989;28;20038;-76
2022/04/02 12:12:46;;;;;;;6.00;2.03;;;4.40;94.90;;;;;;4981554;28;20042;-76
2022/04/02 12:15:13;;;;;;;6.15;1.92;;;4.60;90.20;;;;;;4967444;28;20126;-76
2022/04/02 12:17:39;;;;;;;5.03;1.95;;;4.60;88.20;;;;;;4964357;28;20121;-76
2022/04/02 12:20:10;;;;;;;5.47;1.85;;;4.60;81.90;;;;;;4982579;28;20039;-76
2022/04/02 12:22:39;;;;;;;6.22;2.00;;;4.80;82.50;;;;;;4981852;28;20042;-76
2022/04/02 12:25:13;;;;;;;5.75;2.10;;;5.20;82.20;;;;;;4966491;28;20039;-76
2022/04/02 12:27:39;;;;;;;5.65;1.90;;;5.10;84.00;;;;;;4962829;28;20070;-76
2022/04/02 12:30:08;;;;;;;6.05;2.00;;;5.30;86.80;;;;;;4980271;28;20406;-76
2022/04/02 12:32:44;;;;;;;4.55;1.80;;;5.30;84.60;;;;;;4984860;28;20485;-76
2022/04/02 12:35:24;;;;;;;5.70;2.05;;;5.20;81.80;;;;;;4975668;28;20053;-76
2022/04/02 12:37:52;;;;;;;44.65;29.50;;;5.30;83.40;;;;;;4975581;28;20422;-76
2022/04/02 12:40:25;;;;;;;10.20;6.47;;;5.50;79.90;;;;;;4973778;28;20517;-76
2022/04/02 12:42:53;;;;;;;9.20;4.40;;;5.50;75.60;;;;;;4973137;28;20051;-76
2022/04/02 12:45:27;;;;;;;7.95;4.70;;;5.70;75.50;;;;;;4974345;28;20043;-76
2022/04/02 12:47:58;;;;;;;7.85;5.55;;;5.60;73.30;;;;;;4977640;28;20393;-76
2022/04/02 12:50:25;;;;;;;5.45;2.35;;;5.50;75.70;;;;;;4980564;28;20046;-76
2022/04/02 12:52:51;;;;;;;4.68;2.05;;;5.40;75.80;;;;;;4978315;28;20054;-76
2022/04/02 12:55:23;;;;;;;5.70;1.95;;;5.30;71.70;;;;;;4982295;28;20039;-79
2022/04/02 12:58:07;;;;;;;7.22;3.78;;;5.20;69.70;;;;;;4988453;28;20101;-76
2022/04/02 13:00:37;;;;;;;7.03;3.20;;;5.10;71.40;;;;;;4988027;28;20125;-76
2022/04/02 13:03:04;;;;;;;6.40;3.83;;;5.20;71.70;;;;;;4979307;28;20057;-75
2022/04/02 13:05:48;;;;;;;6.00;2.60;;;5.20;71.70;;;;;;4967342;28;20051;-76
2022/04/02 13:08:17;;;;;;;8.00;2.55;;;5.30;69.40;;;;;;4975747;28;20042;-76
2022/04/02 13:10:45;;;;;;;5.80;2.10;;;5.30;70.70;;;;;;4983201;28;20440;-75
2022/04/02 13:13:13;;;;;;;6.32;1.98;;;5.50;69.40;;;;;;4977752;28;20038;-75
2022/04/02 13:15:40;;;;;;;6.57;3.60;;;5.60;67.20;;;;;;4980123;28;20049;-76
2022/04/02 13:21:00;;;;;;;6.57;3.00;;;5.80;66.60;;;;;;5002874;28;20066;-76